Main page
METAR-TAF:

METAR-TAF

Airports :

Milton, Massachusetts, United States

latitude: 42-12-44N, longitude: 071-06-53W, elevation: 630 ft

Current weather observation

The report was made 54 minutes ago, at 06:56 UTC
Wind 16 mph from the West/Northwest with gusts up to 29 mph
Temperature 57°F
Humidity 67%
Pressure 29.69 in. Hg

METAR: KMQE 210656Z AUTO 29014G25KT 14/08 A2969 RMK AO1 PK WND 28028/0631 SLP059 T01390078

Time: 03:50 (07:50 UTC)


TAF: missing

Weather observations and forecasts of more than 4000 airports (METAR and TAF reports).

The available stations are represented by yellow and red dots on the map.

Hover mouse over dot to see the name of the station.

Then click to see weather observations and forecasts.

To change the map : click on the green buttons with a black cross to zoom in, on the green button with a dash to zoom out, or on the green arrows for adjacent maps.


METAR-TAF: